sensor_id;sensor_type;location;lat;lon;timestamp;P1;durP1;ratioP1;P2;durP2;ratioP2
27889;SDS011;15238;49.082;9.102;2023-01-24T00:01:02;18.35;;;9.73;;
27889;SDS011;15238;49.082;9.102;2023-01-24T00:03:03;16.67;;;10.50;;
27889;SDS011;15238;49.082;9.102;2023-01-24T00:05:04;17.80;;;10.65;;
27889;SDS011;15238;49.082;9.102;2023-01-24T00:07:05;17.55;;;11.13;;
27889;SDS011;15238;49.082;9.102;2023-01-24T00:09:05;18.80;;;10.32;;
27889;SDS011;15238;49.082;9.102;2023-01-24T00:11:07;16.05;;;10.38;;
27889;SDS011;15238;49.082;9.102;2023-01-24T00:13:09;17.10;;;10.43;;
27889;SDS011;15238;49.082;9.102;2023-01-24T00:15:12;16.38;;;9.52;;
27889;SDS011;15238;49.082;9.102;2023-01-24T00:17:12;17.75;;;10.52;;
27889;SDS011;15238;49.082;9.102;2023-01-24T00:19:12;17.27;;;10.52;;
27889;SDS011;15238;49.082;9.102;2023-01-24T00:21:17;18.33;;;10.73;;
27889;SDS011;15238;49.082;9.102;2023-01-24T00:23:22;16.35;;;10.07;;
27889;SDS011;15238;49.082;9.102;2023-01-24T00:25:22;13.77;;;9.65;;
27889;SDS011;15238;49.082;9.102;2023-01-24T00:27:23;16.10;;;10.82;;
27889;SDS011;15238;49.082;9.102;2023-01-24T00:29:23;16.85;;;10.15;;
27889;SDS011;15238;49.082;9.102;2023-01-24T00:31:24;16.23;;;10.50;;
27889;SDS011;15238;49.082;9.102;2023-01-24T00:33:25;16.77;;;10.48;;
27889;SDS011;15238;49.082;9.102;2023-01-24T00:35:25;16.15;;;10.35;;
27889;SDS011;15238;49.082;9.102;2023-01-24T00:37:26;16.52;;;10.48;;
27889;SDS011;15238;49.082;9.102;2023-01-24T00:39:27;16.52;;;10.98;;
27889;SDS011;15238;49.082;9.102;2023-01-24T00:41:27;16.92;;;11.13;;
27889;SDS011;15238;49.082;9.102;2023-01-24T00:43:28;18.80;;;10.95;;
27889;SDS011;15238;49.082;9.102;2023-01-24T00:45:29;19.73;;;10.80;;
27889;SDS011;15238;49.082;9.102;2023-01-24T00:47:29;19.85;;;11.70;;
27889;SDS011;15238;49.082;9.102;2023-01-24T00:49:30;18.08;;;10.70;;
27889;SDS011;15238;49.082;9.102;2023-01-24T00:51:30;18.55;;;10.25;;
27889;SDS011;15238;49.082;9.102;2023-01-24T00:53:31;17.55;;;11.25;;
27889;SDS011;15238;49.082;9.102;2023-01-24T00:55:32;18.23;;;11.10;;
27889;SDS011;15238;49.082;9.102;2023-01-24T00:57:32;17.08;;;10.20;;
27889;SDS011;15238;49.082;9.102;2023-01-24T00:59:33;18.45;;;10.75;;
27889;SDS011;15238;49.082;9.102;2023-01-24T01:01:33;18.13;;;11.65;;
27889;SDS011;15238;49.082;9.102;2023-01-24T01:03:34;18.55;;;11.77;;
27889;SDS011;15238;49.082;9.102;2023-01-24T01:05:35;18.23;;;11.40;;
27889;SDS011;15238;49.082;9.102;2023-01-24T01:07:35;17.40;;;11.38;;
27889;SDS011;15238;49.082;9.102;2023-01-24T01:09:36;18.35;;;10.95;;
27889;SDS011;15238;49.082;9.102;2023-01-24T01:11:36;17.13;;;10.65;;
27889;SDS011;15238;49.082;9.102;2023-01-24T01:13:41;18.73;;;11.55;;
27889;SDS011;15238;49.082;9.102;2023-01-24T01:15:42;16.20;;;10.70;;
27889;SDS011;15238;49.082;9.102;2023-01-24T01:17:42;19.02;;;10.73;;
27889;SDS011;15238;49.082;9.102;2023-01-24T01:19:43;19.52;;;10.57;;
27889;SDS011;15238;49.082;9.102;2023-01-24T01:21:43;19.65;;;10.93;;
27889;SDS011;15238;49.082;9.102;2023-01-24T01:23:44;18.80;;;11.25;;
27889;SDS011;15238;49.082;9.102;2023-01-24T01:25:45;16.05;;;10.38;;
27889;SDS011;15238;49.082;9.102;2023-01-24T01:27:45;15.23;;;10.05;;
27889;SDS011;15238;49.082;9.102;2023-01-24T01:29:46;19.02;;;11.57;;
27889;SDS011;15238;49.082;9.102;2023-01-24T01:31:46;18.88;;;11.57;;
27889;SDS011;15238;49.082;9.102;2023-01-24T01:33:47;16.17;;;10.43;;
27889;SDS011;15238;49.082;9.102;2023-01-24T01:35:48;18.02;;;9.93;;
27889;SDS011;15238;49.082;9.102;2023-01-24T01:37:49;20.17;;;11.20;;
27889;SDS011;15238;49.082;9.102;2023-01-24T01:39:50;19.38;;;10.77;;
27889;SDS011;15238;49.082;9.102;2023-01-24T01:41:51;17.27;;;11.05;;
27889;SDS011;15238;49.082;9.102;2023-01-24T01:43:51;16.38;;;10.25;;
27889;SDS011;15238;49.082;9.102;2023-01-24T01:46:18;21.15;;;11.20;;
27889;SDS011;15238;49.082;9.102;2023-01-24T01:50:31;18.52;;;11.20;;
27889;SDS011;15238;49.082;9.102;2023-01-24T01:52:37;17.33;;;10.73;;
27889;SDS011;15238;49.082;9.102;2023-01-24T01:54:41;17.75;;;11.32;;
27889;SDS011;15238;49.082;9.102;2023-01-24T01:56:48;15.85;;;9.82;;
27889;SDS011;15238;49.082;9.102;2023-01-24T01:58:56;21.70;;;11.48;;
27889;SDS011;15238;49.082;9.102;2023-01-24T02:01:02;16.70;;;10.00;;
27889;SDS011;15238;49.082;9.102;2023-01-24T02:03:13;19.10;;;11.68;;
27889;SDS011;15238;49.082;9.102;2023-01-24T02:05:33;21.55;;;11.65;;
27889;SDS011;15238;49.082;9.102;2023-01-24T02:07:44;21.88;;;12.70;;
27889;SDS011;15238;49.082;9.102;2023-01-24T02:09:55;18.63;;;11.50;;
27889;SDS011;15238;49.082;9.102;2023-01-24T02:11:58;19.65;;;11.23;;
27889;SDS011;15238;49.082;9.102;2023-01-24T02:14:01;18.92;;;11.45;;
27889;SDS011;15238;49.082;9.102;2023-01-24T02:16:20;19.67;;;12.63;;
27889;SDS011;15238;49.082;9.102;2023-01-24T02:18:21;21.73;;;12.35;;
27889;SDS011;15238;49.082;9.102;2023-01-24T02:22:34;19.38;;;12.35;;
27889;SDS011;15238;49.082;9.102;2023-01-24T02:27:24;20.13;;;12.50;;
27889;SDS011;15238;49.082;9.102;2023-01-24T02:29:27;19.92;;;11.27;;
27889;SDS011;15238;49.082;9.102;2023-01-24T02:31:28;21.40;;;11.45;;
27889;SDS011;15238;49.082;9.102;2023-01-24T02:33:29;22.27;;;12.32;;
27889;SDS011;15238;49.082;9.102;2023-01-24T02:35:31;16.95;;;10.63;;
27889;SDS011;15238;49.082;9.102;2023-01-24T02:37:32;20.30;;;12.38;;
27889;SDS011;15238;49.082;9.102;2023-01-24T02:39:38;20.45;;;10.73;;
27889;SDS011;15238;49.082;9.102;2023-01-24T02:41:48;18.92;;;11.73;;
27889;SDS011;15238;49.082;9.102;2023-01-24T02:43:51;19.65;;;11.02;;
27889;SDS011;15238;49.082;9.102;2023-01-24T02:45:55;19.30;;;11.40;;
27889;SDS011;15238;49.082;9.102;2023-01-24T02:47:56;18.92;;;11.98;;
27889;SDS011;15238;49.082;9.102;2023-01-24T02:49:57;22.05;;;11.63;;
27889;SDS011;15238;49.082;9.102;2023-01-24T02:51:59;21.30;;;11.35;;
27889;SDS011;15238;49.082;9.102;2023-01-24T02:54:18;22.10;;;12.02;;
27889;SDS011;15238;49.082;9.102;2023-01-24T02:56:18;21.40;;;12.32;;
27889;SDS011;15238;49.082;9.102;2023-01-24T02:58:37;22.38;;;11.30;;
27889;SDS011;15238;49.082;9.102;2023-01-24T03:00:42;19.92;;;10.60;;
27889;SDS011;15238;49.082;9.102;2023-01-24T03:02:42;19.45;;;11.52;;
27889;SDS011;15238;49.082;9.102;2023-01-24T03:04:43;18.13;;;10.90;;
27889;SDS011;15238;49.082;9.102;2023-01-24T03:06:43;17.92;;;10.85;;
27889;SDS011;15238;49.082;9.102;2023-01-24T03:08:44;19.83;;;11.07;;
27889;SDS011;15238;49.082;9.102;2023-01-24T03:10:45;19.05;;;11.48;;
27889;SDS011;15238;49.082;9.102;2023-01-24T03:12:46;20.10;;;11.35;;
27889;SDS011;15238;49.082;9.102;2023-01-24T03:15:05;18.45;;;11.00;;
27889;SDS011;15238;49.082;9.102;2023-01-24T03:17:25;17.88;;;11.15;;
27889;SDS011;15238;49.082;9.102;2023-01-24T03:19:44;18.17;;;10.77;;
27889;SDS011;15238;49.082;9.102;2023-01-24T03:22:03;21.42;;;10.82;;
27889;SDS011;15238;49.082;9.102;2023-01-24T03:24:22;19.02;;;10.95;;
27889;SDS011;15238;49.082;9.102;2023-01-24T03:26:41;20.30;;;11.02;;
27889;SDS011;15238;49.082;9.102;2023-01-24T03:29:00;22.30;;;11.03;;
27889;SDS011;15238;49.082;9.102;2023-01-24T03:31:19;17.88;;;9.80;;
27889;SDS011;15238;49.082;9.102;2023-01-24T03:33:38;17.67;;;11.02;;
27889;SDS011;15238;49.082;9.102;2023-01-24T03:35:57;21.15;;;9.52;;
27889;SDS011;15238;49.082;9.102;2023-01-24T03:38:01;19.17;;;10.52;;
27889;SDS011;15238;49.082;9.102;2023-01-24T03:40:21;18.70;;;11.15;;
27889;SDS011;15238;49.082;9.102;2023-01-24T03:42:22;19.38;;;11.05;;
27889;SDS011;15238;49.082;9.102;2023-01-24T03:44:22;20.25;;;12.20;;
27889;SDS011;15238;49.082;9.102;2023-01-24T03:46:23;21.58;;;12.05;;
27889;SDS011;15238;49.082;9.102;2023-01-24T03:48:24;20.52;;;11.43;;
27889;SDS011;15238;49.082;9.102;2023-01-24T03:50:27;16.77;;;10.43;;
27889;SDS011;15238;49.082;9.102;2023-01-24T03:52:49;20.73;;;11.18;;
27889;SDS011;15238;49.082;9.102;2023-01-24T03:54:49;19.25;;;10.50;;
27889;SDS011;15238;49.082;9.102;2023-01-24T03:56:50;21.15;;;11.20;;
27889;SDS011;15238;49.082;9.102;2023-01-24T03:58:50;19.85;;;11.65;;
27889;SDS011;15238;49.082;9.102;2023-01-24T04:00:53;21.08;;;11.75;;
27889;SDS011;15238;49.082;9.102;2023-01-24T04:02:55;19.48;;;10.93;;
27889;SDS011;15238;49.082;9.102;2023-01-24T04:04:55;18.48;;;11.05;;
27889;SDS011;15238;49.082;9.102;2023-01-24T04:07:14;18.77;;;10.80;;
27889;SDS011;15238;49.082;9.102;2023-01-24T04:09:14;18.02;;;11.25;;
27889;SDS011;15238;49.082;9.102;2023-01-24T04:11:15;20.08;;;11.63;;
27889;SDS011;15238;49.082;9.102;2023-01-24T04:13:16;19.95;;;11.43;;
27889;SDS011;15238;49.082;9.102;2023-01-24T04:15:18;18.80;;;10.95;;
27889;SDS011;15238;49.082;9.102;2023-01-24T04:17:20;20.83;;;11.77;;
27889;SDS011;15238;49.082;9.102;2023-01-24T04:19:20;22.40;;;12.32;;
27889;SDS011;15238;49.082;9.102;2023-01-24T04:21:21;21.13;;;11.10;;
27889;SDS011;15238;49.082;9.102;2023-01-24T04:23:21;21.52;;;11.63;;
27889;SDS011;15238;49.082;9.102;2023-01-24T04:25:22;19.27;;;10.98;;
27889;SDS011;15238;49.082;9.102;2023-01-24T04:27:22;19.23;;;11.23;;
27889;SDS011;15238;49.082;9.102;2023-01-24T04:29:23;21.65;;;12.55;;
27889;SDS011;15238;49.082;9.102;2023-01-24T04:31:23;20.38;;;11.65;;
27889;SDS011;15238;49.082;9.102;2023-01-24T04:33:24;19.67;;;11.68;;
27889;SDS011;15238;49.082;9.102;2023-01-24T04:35:26;22.73;;;12.85;;
27889;SDS011;15238;49.082;9.102;2023-01-24T04:37:28;19.40;;;11.35;;
27889;SDS011;15238;49.082;9.102;2023-01-24T04:39:28;23.77;;;12.68;;
27889;SDS011;15238;49.082;9.102;2023-01-24T04:41:29;21.35;;;11.98;;
27889;SDS011;15238;49.082;9.102;2023-01-24T04:43:29;20.27;;;11.05;;
27889;SDS011;15238;49.082;9.102;2023-01-24T04:45:30;17.60;;;10.68;;
27889;SDS011;15238;49.082;9.102;2023-01-24T04:47:31;18.52;;;10.73;;
27889;SDS011;15238;49.082;9.102;2023-01-24T04:49:31;19.52;;;11.25;;
27889;SDS011;15238;49.082;9.102;2023-01-24T04:51:32;23.23;;;11.90;;
27889;SDS011;15238;49.082;9.102;2023-01-24T04:53:32;21.02;;;11.77;;
27889;SDS011;15238;49.082;9.102;2023-01-24T04:55:35;20.08;;;11.52;;
27889;SDS011;15238;49.082;9.102;2023-01-24T04:57:35;23.40;;;11.32;;
27889;SDS011;15238;49.082;9.102;2023-01-24T04:59:36;20.60;;;12.18;;
27889;SDS011;15238;49.082;9.102;2023-01-24T05:01:36;19.10;;;11.05;;
27889;SDS011;15238;49.082;9.102;2023-01-24T05:03:37;19.95;;;11.48;;
27889;SDS011;15238;49.082;9.102;2023-01-24T05:05:38;20.27;;;11.75;;
27889;SDS011;15238;49.082;9.102;2023-01-24T05:07:38;19.85;;;12.05;;
27889;SDS011;15238;49.082;9.102;2023-01-24T05:09:39;22.08;;;11.38;;
27889;SDS011;15238;49.082;9.102;2023-01-24T05:11:39;21.20;;;11.65;;
27889;SDS011;15238;49.082;9.102;2023-01-24T05:13:40;20.02;;;11.68;;
27889;SDS011;15238;49.082;9.102;2023-01-24T05:15:45;20.05;;;11.57;;
27889;SDS011;15238;49.082;9.102;2023-01-24T05:17:50;20.13;;;11.63;;
27889;SDS011;15238;49.082;9.102;2023-01-24T05:19:50;19.70;;;11.85;;
27889;SDS011;15238;49.082;9.102;2023-01-24T05:21:51;23.70;;;12.32;;
27889;SDS011;15238;49.082;9.102;2023-01-24T05:23:52;20.10;;;12.32;;
27889;SDS011;15238;49.082;9.102;2023-01-24T05:25:57;21.38;;;13.20;;
27889;SDS011;15238;49.082;9.102;2023-01-24T05:27:58;23.00;;;13.50;;
27889;SDS011;15238;49.082;9.102;2023-01-24T05:29:59;22.45;;;12.82;;
27889;SDS011;15238;49.082;9.102;2023-01-24T05:31:59;21.33;;;12.13;;
27889;SDS011;15238;49.082;9.102;2023-01-24T05:34:00;45.88;;;32.13;;
27889;SDS011;15238;49.082;9.102;2023-01-24T05:36:01;38.45;;;21.05;;
27889;SDS011;15238;49.082;9.102;2023-01-24T05:38:04;25.80;;;15.40;;
27889;SDS011;15238;49.082;9.102;2023-01-24T05:40:04;22.50;;;14.20;;
27889;SDS011;15238;49.082;9.102;2023-01-24T05:42:06;23.00;;;13.45;;
27889;SDS011;15238;49.082;9.102;2023-01-24T05:44:06;20.70;;;12.52;;
27889;SDS011;15238;49.082;9.102;2023-01-24T05:46:09;23.65;;;12.70;;
27889;SDS011;15238;49.082;9.102;2023-01-24T05:48:11;23.05;;;13.40;;
27889;SDS011;15238;49.082;9.102;2023-01-24T05:50:12;21.63;;;12.60;;
27889;SDS011;15238;49.082;9.102;2023-01-24T05:52:13;23.45;;;13.43;;
27889;SDS011;15238;49.082;9.102;2023-01-24T05:54:18;22.00;;;12.65;;
27889;SDS011;15238;49.082;9.102;2023-01-24T05:56:19;24.27;;;14.05;;
27889;SDS011;15238;49.082;9.102;2023-01-24T05:58:19;21.95;;;12.60;;
27889;SDS011;15238;49.082;9.102;2023-01-24T06:00:20;23.15;;;13.00;;
27889;SDS011;15238;49.082;9.102;2023-01-24T06:02:21;22.13;;;12.73;;
27889;SDS011;15238;49.082;9.102;2023-01-24T06:04:21;22.55;;;12.85;;
27889;SDS011;15238;49.082;9.102;2023-01-24T06:06:22;22.95;;;13.63;;
27889;SDS011;15238;49.082;9.102;2023-01-24T06:08:24;23.52;;;13.80;;
27889;SDS011;15238;49.082;9.102;2023-01-24T06:10:24;28.02;;;13.48;;
27889;SDS011;15238;49.082;9.102;2023-01-24T06:12:25;22.90;;;13.48;;
27889;SDS011;15238;49.082;9.102;2023-01-24T06:14:25;23.88;;;13.63;;
27889;SDS011;15238;49.082;9.102;2023-01-24T06:16:26;25.95;;;14.82;;
27889;SDS011;15238;49.082;9.102;2023-01-24T06:18:26;25.00;;;14.40;;
27889;SDS011;15238;49.082;9.102;2023-01-24T06:20:27;25.83;;;14.13;;
27889;SDS011;15238;49.082;9.102;2023-01-24T06:22:30;22.42;;;13.10;;
27889;SDS011;15238;49.082;9.102;2023-01-24T06:24:38;23.55;;;14.38;;
27889;SDS011;15238;49.082;9.102;2023-01-24T06:26:40;23.38;;;13.07;;
27889;SDS011;15238;49.082;9.102;2023-01-24T06:28:41;23.23;;;12.93;;
27889;SDS011;15238;49.082;9.102;2023-01-24T06:30:42;24.65;;;13.27;;
27889;SDS011;15238;49.082;9.102;2023-01-24T06:37:48;25.95;;;13.23;;
27889;SDS011;15238;49.082;9.102;2023-01-24T06:39:50;25.95;;;14.48;;
27889;SDS011;15238;49.082;9.102;2023-01-24T06:41:52;23.02;;;13.43;;
27889;SDS011;15238;49.082;9.102;2023-01-24T06:43:53;25.58;;;14.18;;
27889;SDS011;15238;49.082;9.102;2023-01-24T06:45:54;21.70;;;12.48;;
27889;SDS011;15238;49.082;9.102;2023-01-24T06:47:55;23.92;;;11.90;;
27889;SDS011;15238;49.082;9.102;2023-01-24T06:50:32;22.38;;;12.45;;
27889;SDS011;15238;49.082;9.102;2023-01-24T06:52:33;22.48;;;13.18;;
27889;SDS011;15238;49.082;9.102;2023-01-24T06:54:34;26.45;;;13.63;;
27889;SDS011;15238;49.082;9.102;2023-01-24T06:56:35;23.95;;;13.48;;
27889;SDS011;15238;49.082;9.102;2023-01-24T06:58:35;23.10;;;12.32;;
27889;SDS011;15238;49.082;9.102;2023-01-24T07:00:36;24.30;;;13.73;;
27889;SDS011;15238;49.082;9.102;2023-01-24T07:02:37;25.83;;;13.30;;
27889;SDS011;15238;49.082;9.102;2023-01-24T07:04:37;23.17;;;13.10;;
27889;SDS011;15238;49.082;9.102;2023-01-24T07:06:38;29.52;;;13.50;;
27889;SDS011;15238;49.082;9.102;2023-01-24T07:08:38;23.33;;;12.30;;
27889;SDS011;15238;49.082;9.102;2023-01-24T07:10:39;21.90;;;12.35;;
27889;SDS011;15238;49.082;9.102;2023-01-24T07:12:41;22.88;;;12.52;;
27889;SDS011;15238;49.082;9.102;2023-01-24T07:14:42;23.50;;;12.98;;
27889;SDS011;15238;49.082;9.102;2023-01-24T07:16:43;23.98;;;12.10;;
27889;SDS011;15238;49.082;9.102;2023-01-24T07:18:44;20.88;;;12.00;;
27889;SDS011;15238;49.082;9.102;2023-01-24T07:20:45;23.00;;;13.38;;
27889;SDS011;15238;49.082;9.102;2023-01-24T07:22:46;21.17;;;12.60;;
27889;SDS011;15238;49.082;9.102;2023-01-24T07:24:47;23.15;;;12.88;;
27889;SDS011;15238;49.082;9.102;2023-01-24T07:26:49;25.88;;;13.90;;
27889;SDS011;15238;49.082;9.102;2023-01-24T07:28:50;25.17;;;13.20;;
27889;SDS011;15238;49.082;9.102;2023-01-24T07:30:52;24.13;;;13.02;;
27889;SDS011;15238;49.082;9.102;2023-01-24T07:32:53;24.25;;;13.45;;
27889;SDS011;15238;49.082;9.102;2023-01-24T07:34:53;20.95;;;12.60;;
27889;SDS011;15238;49.082;9.102;2023-01-24T07:36:54;22.55;;;13.27;;
27889;SDS011;15238;49.082;9.102;2023-01-24T07:38:55;24.52;;;13.73;;
27889;SDS011;15238;49.082;9.102;2023-01-24T07:40:56;28.27;;;13.90;;
27889;SDS011;15238;49.082;9.102;2023-01-24T07:42:58;25.92;;;14.45;;
27889;SDS011;15238;49.082;9.102;2023-01-24T07:45:00;21.88;;;12.23;;
27889;SDS011;15238;49.082;9.102;2023-01-24T07:47:01;23.67;;;13.13;;
27889;SDS011;15238;49.082;9.102;2023-01-24T07:49:01;25.27;;;14.05;;
27889;SDS011;15238;49.082;9.102;2023-01-24T07:51:02;22.27;;;12.68;;
27889;SDS011;15238;49.082;9.102;2023-01-24T07:53:03;21.50;;;12.40;;
27889;SDS011;15238;49.082;9.102;2023-01-24T07:55:04;24.75;;;13.15;;
27889;SDS011;15238;49.082;9.102;2023-01-24T07:57:04;25.88;;;13.48;;
27889;SDS011;15238;49.082;9.102;2023-01-24T07:59:05;31.80;;;13.85;;
27889;SDS011;15238;49.082;9.102;2023-01-24T08:01:06;25.75;;;13.57;;
27889;SDS011;15238;49.082;9.102;2023-01-24T08:03:08;22.50;;;13.07;;
27889;SDS011;15238;49.082;9.102;2023-01-24T08:05:09;25.08;;;13.55;;
27889;SDS011;15238;49.082;9.102;2023-01-24T08:07:10;21.60;;;12.43;;
27889;SDS011;15238;49.082;9.102;2023-01-24T08:09:16;25.52;;;12.98;;
27889;SDS011;15238;49.082;9.102;2023-01-24T08:11:16;21.85;;;12.70;;
27889;SDS011;15238;49.082;9.102;2023-01-24T08:13:17;20.98;;;12.23;;
27889;SDS011;15238;49.082;9.102;2023-01-24T08:15:18;21.05;;;12.52;;
27889;SDS011;15238;49.082;9.102;2023-01-24T08:17:18;20.27;;;11.77;;
27889;SDS011;15238;49.082;9.102;2023-01-24T08:19:19;24.27;;;13.10;;
27889;SDS011;15238;49.082;9.102;2023-01-24T08:21:19;23.52;;;12.23;;
27889;SDS011;15238;49.082;9.102;2023-01-24T08:23:20;20.27;;;11.77;;
27889;SDS011;15238;49.082;9.102;2023-01-24T08:25:20;24.38;;;12.43;;
27889;SDS011;15238;49.082;9.102;2023-01-24T08:27:21;22.30;;;12.57;;
27889;SDS011;15238;49.082;9.102;2023-01-24T08:29:21;23.88;;;13.48;;
27889;SDS011;15238;49.082;9.102;2023-01-24T08:31:22;21.58;;;12.15;;
27889;SDS011;15238;49.082;9.102;2023-01-24T08:33:22;24.48;;;13.30;;
27889;SDS011;15238;49.082;9.102;2023-01-24T08:35:23;20.52;;;12.75;;
27889;SDS011;15238;49.082;9.102;2023-01-24T08:37:23;23.23;;;13.45;;
27889;SDS011;15238;49.082;9.102;2023-01-24T08:39:24;21.67;;;12.32;;
27889;SDS011;15238;49.082;9.102;2023-01-24T08:41:24;20.75;;;12.38;;
27889;SDS011;15238;49.082;9.102;2023-01-24T08:43:25;19.88;;;12.30;;
27889;SDS011;15238;49.082;9.102;2023-01-24T08:45:25;23.02;;;12.02;;
27889;SDS011;15238;49.082;9.102;2023-01-24T08:47:26;24.48;;;13.02;;
27889;SDS011;15238;49.082;9.102;2023-01-24T08:49:26;22.75;;;12.23;;
27889;SDS011;15238;49.082;9.102;2023-01-24T08:51:27;22.63;;;12.35;;
27889;SDS011;15238;49.082;9.102;2023-01-24T08:53:28;22.75;;;12.68;;
27889;SDS011;15238;49.082;9.102;2023-01-24T08:55:28;22.17;;;12.27;;
27889;SDS011;15238;49.082;9.102;2023-01-24T08:57:29;20.90;;;11.60;;
27889;SDS011;15238;49.082;9.102;2023-01-24T08:59:29;21.05;;;12.13;;
27889;SDS011;15238;49.082;9.102;2023-01-24T09:01:30;22.60;;;12.75;;
27889;SDS011;15238;49.082;9.102;2023-01-24T09:03:33;20.20;;;11.25;;
27889;SDS011;15238;49.082;9.102;2023-01-24T09:05:34;19.90;;;11.45;;
27889;SDS011;15238;49.082;9.102;2023-01-24T09:07:36;20.42;;;11.80;;
27889;SDS011;15238;49.082;9.102;2023-01-24T09:09:37;21.42;;;11.88;;
27889;SDS011;15238;49.082;9.102;2023-01-24T09:11:37;20.00;;;11.82;;
27889;SDS011;15238;49.082;9.102;2023-01-24T09:13:38;22.20;;;12.15;;
27889;SDS011;15238;49.082;9.102;2023-01-24T09:15:38;22.60;;;12.00;;
27889;SDS011;15238;49.082;9.102;2023-01-24T09:17:39;21.80;;;11.23;;
27889;SDS011;15238;49.082;9.102;2023-01-24T09:19:39;19.13;;;11.73;;
27889;SDS011;15238;49.082;9.102;2023-01-24T09:21:40;20.67;;;11.40;;
27889;SDS011;15238;49.082;9.102;2023-01-24T09:23:41;18.38;;;9.90;;
27889;SDS011;15238;49.082;9.102;2023-01-24T09:25:41;21.38;;;11.05;;
27889;SDS011;15238;49.082;9.102;2023-01-24T09:27:54;22.77;;;11.23;;
27889;SDS011;15238;49.082;9.102;2023-01-24T09:29:55;19.63;;;10.88;;
27889;SDS011;15238;49.082;9.102;2023-01-24T09:31:56;19.95;;;11.50;;
27889;SDS011;15238;49.082;9.102;2023-01-24T09:33:56;20.10;;;11.82;;
27889;SDS011;15238;49.082;9.102;2023-01-24T09:35:58;19.27;;;11.30;;
27889;SDS011;15238;49.082;9.102;2023-01-24T09:38:00;19.02;;;11.20;;
27889;SDS011;15238;49.082;9.102;2023-01-24T09:40:00;16.85;;;10.45;;
27889;SDS011;15238;49.082;9.102;2023-01-24T09:42:44;21.17;;;11.68;;
27889;SDS011;15238;49.082;9.102;2023-01-24T09:47:14;16.67;;;10.15;;
27889;SDS011;15238;49.082;9.102;2023-01-24T09:49:41;18.20;;;10.60;;
27889;SDS011;15238;49.082;9.102;2023-01-24T09:51:48;16.88;;;10.45;;
27889;SDS011;15238;49.082;9.102;2023-01-24T09:53:54;16.73;;;9.57;;
27889;SDS011;15238;49.082;9.102;2023-01-24T09:55:59;21.13;;;11.27;;
27889;SDS011;15238;49.082;9.102;2023-01-24T09:58:02;16.40;;;10.32;;
27889;SDS011;15238;49.082;9.102;2023-01-24T10:00:10;19.42;;;10.98;;
27889;SDS011;15238;49.082;9.102;2023-01-24T10:02:25;20.02;;;11.52;;
27889;SDS011;15238;49.082;9.102;2023-01-24T10:04:30;16.52;;;9.57;;
27889;SDS011;15238;49.082;9.102;2023-01-24T10:06:34;18.08;;;10.45;;
27889;SDS011;15238;49.082;9.102;2023-01-24T10:08:44;20.75;;;11.40;;
27889;SDS011;15238;49.082;9.102;2023-01-24T10:13:47;19.02;;;9.85;;
27889;SDS011;15238;49.082;9.102;2023-01-24T10:18:21;18.67;;;11.15;;
27889;SDS011;15238;49.082;9.102;2023-01-24T10:22:51;17.95;;;10.73;;
27889;SDS011;15238;49.082;9.102;2023-01-24T10:25:17;17.13;;;9.73;;
27889;SDS011;15238;49.082;9.102;2023-01-24T10:29:26;20.17;;;9.95;;
27889;SDS011;15238;49.082;9.102;2023-01-24T10:31:31;13.75;;;8.57;;
27889;SDS011;15238;49.082;9.102;2023-01-24T10:33:41;17.67;;;10.00;;
27889;SDS011;15238;49.082;9.102;2023-01-24T10:37:52;15.73;;;9.48;;
27889;SDS011;15238;49.082;9.102;2023-01-24T10:39:55;18.75;;;9.73;;
27889;SDS011;15238;49.082;9.102;2023-01-24T10:41:58;15.55;;;9.52;;
27889;SDS011;15238;49.082;9.102;2023-01-24T10:44:03;15.00;;;9.45;;
27889;SDS011;15238;49.082;9.102;2023-01-24T10:46:25;15.73;;;9.35;;
27889;SDS011;15238;49.082;9.102;2023-01-24T10:48:49;14.02;;;8.88;;
27889;SDS011;15238;49.082;9.102;2023-01-24T10:50:52;14.20;;;8.50;;
27889;SDS011;15238;49.082;9.102;2023-01-24T10:52:52;12.27;;;7.57;;
27889;SDS011;15238;49.082;9.102;2023-01-24T10:55:00;15.25;;;9.02;;
27889;SDS011;15238;49.082;9.102;2023-01-24T10:57:02;16.15;;;9.05;;
27889;SDS011;15238;49.082;9.102;2023-01-24T10:59:03;15.27;;;9.02;;
27889;SDS011;15238;49.082;9.102;2023-01-24T11:01:07;15.93;;;8.93;;
27889;SDS011;15238;49.082;9.102;2023-01-24T11:03:19;14.23;;;8.15;;
27889;SDS011;15238;49.082;9.102;2023-01-24T11:05:24;13.55;;;7.80;;
27889;SDS011;15238;49.082;9.102;2023-01-24T11:07:26;14.95;;;8.30;;
27889;SDS011;15238;49.082;9.102;2023-01-24T11:09:30;13.57;;;8.35;;
27889;SDS011;15238;49.082;9.102;2023-01-24T11:11:34;12.02;;;7.35;;
27889;SDS011;15238;49.082;9.102;2023-01-24T11:13:42;13.93;;;8.70;;
27889;SDS011;15238;49.082;9.102;2023-01-24T11:15:46;15.13;;;8.60;;
27889;SDS011;15238;49.082;9.102;2023-01-24T11:17:57;15.07;;;8.50;;
27889;SDS011;15238;49.082;9.102;2023-01-24T11:20:20;13.70;;;7.93;;
27889;SDS011;15238;49.082;9.102;2023-01-24T11:22:27;14.27;;;8.05;;
27889;SDS011;15238;49.082;9.102;2023-01-24T11:24:35;15.63;;;8.00;;
27889;SDS011;15238;49.082;9.102;2023-01-24T11:26:50;15.05;;;8.25;;
27889;SDS011;15238;49.082;9.102;2023-01-24T11:29:00;16.15;;;8.73;;
27889;SDS011;15238;49.082;9.102;2023-01-24T11:31:07;17.60;;;10.88;;
27889;SDS011;15238;49.082;9.102;2023-01-24T11:33:24;12.70;;;7.72;;
27889;SDS011;15238;49.082;9.102;2023-01-24T11:35:34;14.95;;;8.68;;
27889;SDS011;15238;49.082;9.102;2023-01-24T11:41:56;10.63;;;7.57;;
27889;SDS011;15238;49.082;9.102;2023-01-24T11:44:14;12.07;;;7.43;;
27889;SDS011;15238;49.082;9.102;2023-01-24T11:46:48;12.07;;;7.00;;
27889;SDS011;15238;49.082;9.102;2023-01-24T11:55:46;13.45;;;8.05;;
27889;SDS011;15238;49.082;9.102;2023-01-24T12:02:40;14.02;;;7.65;;
27889;SDS011;15238;49.082;9.102;2023-01-24T12:05:15;17.95;;;8.07;;
27889;SDS011;15238;49.082;9.102;2023-01-24T12:09:47;13.00;;;8.02;;
27889;SDS011;15238;49.082;9.102;2023-01-24T12:17:06;14.43;;;8.63;;
27889;SDS011;15238;49.082;9.102;2023-01-24T12:21:30;11.95;;;7.20;;
27889;SDS011;15238;49.082;9.102;2023-01-24T12:26:05;14.38;;;8.65;;
27889;SDS011;15238;49.082;9.102;2023-01-24T12:28:15;13.70;;;8.45;;
27889;SDS011;15238;49.082;9.102;2023-01-24T12:30:28;14.13;;;7.63;;
27889;SDS011;15238;49.082;9.102;2023-01-24T12:32:58;13.70;;;8.43;;
27889;SDS011;15238;49.082;9.102;2023-01-24T12:37:52;11.80;;;7.03;;
27889;SDS011;15238;49.082;9.102;2023-01-24T12:40:06;13.30;;;7.57;;
27889;SDS011;15238;49.082;9.102;2023-01-24T12:42:18;12.75;;;7.90;;
27889;SDS011;15238;49.082;9.102;2023-01-24T12:44:33;13.85;;;8.57;;
27889;SDS011;15238;49.082;9.102;2023-01-24T12:46:42;15.15;;;8.25;;
27889;SDS011;15238;49.082;9.102;2023-01-24T12:51:43;12.10;;;7.03;;
27889;SDS011;15238;49.082;9.102;2023-01-24T12:54:10;12.38;;;7.78;;
27889;SDS011;15238;49.082;9.102;2023-01-24T12:56:13;14.65;;;7.82;;
27889;SDS011;15238;49.082;9.102;2023-01-24T12:58:24;13.68;;;8.45;;
27889;SDS011;15238;49.082;9.102;2023-01-24T13:00:42;16.65;;;9.88;;
27889;SDS011;15238;49.082;9.102;2023-01-24T13:12:11;17.33;;;9.73;;
27889;SDS011;15238;49.082;9.102;2023-01-24T13:19:13;18.05;;;9.80;;
27889;SDS011;15238;49.082;9.102;2023-01-24T13:21:52;18.70;;;10.43;;
27889;SDS011;15238;49.082;9.102;2023-01-24T13:26:29;17.77;;;10.02;;